createdAt,value
2023-05-04T00:00:32.724Z,4.95
2023-05-04T00:01:34.124Z,5.47
2023-05-04T00:02:35.878Z,5.20
2023-05-04T00:03:38.667Z,5.40
2023-05-04T00:04:42.649Z,4.70
2023-05-04T00:05:44.244Z,4.57
2023-05-04T00:06:45.766Z,4.82
2023-05-04T00:07:47.164Z,3.97
2023-05-04T00:08:48.602Z,5.10
2023-05-04T00:09:50.936Z,4.90
2023-05-04T00:10:52.325Z,4.95
2023-05-04T00:11:53.788Z,4.75
2023-05-04T00:12:55.257Z,4.82
2023-05-04T00:13:56.737Z,4.78
2023-05-04T00:14:58.173Z,5.38
2023-05-04T00:15:59.671Z,5.18
2023-05-04T00:17:02.940Z,5.38
2023-05-04T00:18:04.463Z,5.03
2023-05-04T00:19:06.292Z,4.50
2023-05-04T00:20:08.165Z,4.95
2023-05-04T00:21:09.606Z,4.72
2023-05-04T00:22:11.010Z,5.05
2023-05-04T00:23:12.468Z,5.05
2023-05-04T00:24:13.964Z,5.03
2023-05-04T00:25:15.414Z,4.70
2023-05-04T00:26:16.857Z,4.88
2023-05-04T00:27:18.272Z,4.70
2023-05-04T00:28:19.669Z,4.72
2023-05-04T00:29:21.159Z,4.60
2023-05-04T00:30:22.620Z,5.30
2023-05-04T00:31:24.079Z,4.78
2023-05-04T00:32:25.551Z,5.13
2023-05-04T00:33:26.962Z,5.00
2023-05-04T00:34:29.563Z,4.78
2023-05-04T00:35:31.762Z,4.55
2023-05-04T00:36:33.261Z,4.78
2023-05-04T00:37:34.702Z,4.95
2023-05-04T00:38:52.878Z,5.28
2023-05-04T00:39:54.300Z,5.20
2023-05-04T00:40:55.735Z,5.47
2023-05-04T00:41:57.129Z,4.18
2023-05-04T00:42:58.601Z,4.75
2023-05-04T00:44:00.023Z,4.78
2023-05-04T00:45:01.450Z,5.03
2023-05-04T00:46:03.107Z,4.45
2023-05-04T00:47:04.739Z,4.70
2023-05-04T00:48:06.897Z,4.75
2023-05-04T00:49:08.948Z,4.45
2023-05-04T00:51:14.611Z,4.43
2023-05-04T00:52:17.124Z,4.70
2023-05-04T00:53:18.674Z,4.13
2023-05-04T00:54:20.235Z,4.45
2023-05-04T00:55:22.474Z,5.55
2023-05-04T00:56:25.011Z,4.13
2023-05-04T00:57:26.604Z,4.60
2023-05-04T00:58:28.866Z,4.53
2023-05-04T00:59:30.310Z,5.60
2023-05-04T01:00:31.841Z,5.43
2023-05-04T01:01:33.326Z,4.40
2023-05-04T01:02:34.998Z,4.53
2023-05-04T01:03:36.826Z,4.55
2023-05-04T01:04:38.354Z,4.82
2023-05-04T01:05:45.000Z,4.85
2023-05-04T01:07:05.058Z,4.65
2023-05-04T01:09:22.338Z,4.57
2023-05-04T01:10:30.203Z,4.65
2023-05-04T01:11:49.723Z,5.15
2023-05-04T01:13:03.926Z,4.97
2023-05-04T01:14:06.839Z,5.13
2023-05-04T01:15:12.339Z,5.13
2023-05-04T01:16:14.211Z,5.35
2023-05-04T01:17:15.763Z,5.05
2023-05-04T01:18:17.355Z,4.30
2023-05-04T01:19:18.790Z,5.20
2023-05-04T01:20:22.780Z,4.60
2023-05-04T01:21:24.206Z,5.60
2023-05-04T01:22:26.416Z,5.03
2023-05-04T01:23:27.919Z,4.70
2023-05-04T01:24:30.171Z,5.22
2023-05-04T01:25:43.681Z,5.38
2023-05-04T01:26:47.272Z,5.63
2023-05-04T01:27:51.380Z,5.00
2023-05-04T01:29:14.134Z,4.57
2023-05-04T01:30:35.918Z,5.15
2023-05-04T01:31:39.251Z,5.15
2023-05-04T01:32:41.862Z,5.65
2023-05-04T01:33:44.356Z,6.10
2023-05-04T01:34:46.404Z,5.80
2023-05-04T01:36:50.526Z,4.45
2023-05-04T01:37:51.963Z,5.32
2023-05-04T01:38:54.898Z,4.82
2023-05-04T01:39:56.390Z,5.22
2023-05-04T01:40:57.785Z,5.78
2023-05-04T01:41:59.220Z,5.90
2023-05-04T01:43:00.874Z,5.35
2023-05-04T01:44:03.618Z,5.57
2023-05-04T01:45:05.616Z,5.60
2023-05-04T01:46:07.212Z,5.63
2023-05-04T01:47:08.798Z,5.15
2023-05-04T01:48:10.425Z,5.70
2023-05-04T01:49:11.933Z,5.97
2023-05-04T01:50:13.413Z,5.85
2023-05-04T01:51:14.882Z,5.10
2023-05-04T01:52:16.384Z,5.60
2023-05-04T01:53:20.948Z,5.75
2023-05-04T01:54:22.465Z,5.95
2023-05-04T01:55:23.920Z,5.75
2023-05-04T01:56:25.986Z,5.95
2023-05-04T01:58:28.775Z,5.20
2023-05-04T01:59:30.351Z,6.70
2023-05-04T02:00:31.766Z,5.68
2023-05-04T02:01:33.270Z,6.82
2023-05-04T02:02:34.789Z,5.63
2023-05-04T02:03:36.381Z,6.22
2023-05-04T02:04:37.944Z,5.68
2023-05-04T02:05:39.370Z,5.90
2023-05-04T02:06:40.766Z,5.25
2023-05-04T02:07:42.156Z,6.30
2023-05-04T02:08:43.567Z,6.38
2023-05-04T02:09:45.221Z,5.93
2023-05-04T02:10:47.608Z,5.82
2023-05-04T02:11:49.019Z,5.68
2023-05-04T02:12:50.541Z,6.03
2023-05-04T02:13:52.014Z,5.93
2023-05-04T02:14:53.465Z,5.95
2023-05-04T02:15:54.871Z,5.95
2023-05-04T02:16:56.314Z,6.90
2023-05-04T02:17:57.782Z,5.90
2023-05-04T02:18:59.344Z,5.32
2023-05-04T02:20:00.728Z,5.90
2023-05-04T02:21:02.181Z,5.50
2023-05-04T02:22:03.571Z,5.80
2023-05-04T02:23:05.007Z,6.25
2023-05-04T02:24:06.936Z,5.60
2023-05-04T02:25:08.736Z,7.25
2023-05-04T02:26:10.140Z,6.07
2023-05-04T02:27:11.548Z,5.97
2023-05-04T02:28:12.917Z,5.50
2023-05-04T02:29:14.309Z,5.65
2023-05-04T02:30:16.129Z,5.93
2023-05-04T02:31:17.653Z,5.97
2023-05-04T02:32:19.120Z,6.30
2023-05-04T02:33:20.514Z,6.15
2023-05-04T02:34:21.926Z,5.72
2023-05-04T02:35:23.354Z,6.57
2023-05-04T02:36:24.780Z,6.57
2023-05-04T02:37:26.250Z,5.68
2023-05-04T02:38:27.705Z,5.00
2023-05-04T02:39:29.090Z,6.85
2023-05-04T02:40:30.507Z,6.88
2023-05-04T02:41:31.896Z,6.13
2023-05-04T02:42:33.324Z,5.85
2023-05-04T02:43:34.797Z,6.20
2023-05-04T02:44:36.252Z,7.15
2023-05-04T02:45:37.829Z,5.88
2023-05-04T02:46:39.263Z,6.25
2023-05-04T02:47:40.776Z,6.25
2023-05-04T02:48:42.251Z,6.18
2023-05-04T02:49:43.713Z,6.35
2023-05-04T02:50:46.413Z,6.82
2023-05-04T02:51:47.854Z,6.35
2023-05-04T02:52:49.241Z,6.82
2023-05-04T02:53:50.672Z,6.38
2023-05-04T02:54:53.208Z,7.07
2023-05-04T02:55:54.773Z,6.22
2023-05-04T02:56:56.189Z,5.97
2023-05-04T02:57:58.219Z,6.38
2023-05-04T03:00:00.962Z,6.43
2023-05-04T03:01:02.452Z,6.35
2023-05-04T03:02:03.882Z,7.28
2023-05-04T03:03:05.459Z,7.05
2023-05-04T03:04:07.426Z,6.82
2023-05-04T03:05:08.997Z,7.10
2023-05-04T03:06:10.472Z,7.10
2023-05-04T03:07:12.092Z,7.13
2023-05-04T03:08:13.563Z,6.88
2023-05-04T03:09:15.037Z,7.22
2023-05-04T03:10:16.539Z,6.85
2023-05-04T03:11:17.947Z,7.32
2023-05-04T03:12:19.606Z,6.72
2023-05-04T03:13:21.030Z,7.95
2023-05-04T03:14:22.457Z,7.20
2023-05-04T03:15:23.915Z,7.20
2023-05-04T03:16:25.504Z,7.40
2023-05-04T03:17:26.984Z,7.50
2023-05-04T03:19:43.780Z,7.03
2023-05-04T03:20:45.718Z,7.95
2023-05-04T03:21:47.285Z,8.70
2023-05-04T03:22:48.685Z,7.65
2023-05-04T03:23:50.096Z,8.05
2023-05-04T03:24:51.585Z,6.95
2023-05-04T03:25:52.997Z,7.18
2023-05-04T03:26:54.722Z,8.52
2023-05-04T03:27:56.180Z,7.55
2023-05-04T03:28:57.609Z,7.45
2023-05-04T03:29:59.012Z,7.28
2023-05-04T03:31:00.452Z,7.60
2023-05-04T03:32:02.012Z,7.45
2023-05-04T03:33:03.803Z,7.53
2023-05-04T03:34:05.305Z,7.72
2023-05-04T03:35:07.354Z,7.18
2023-05-04T03:37:10.670Z,6.75
2023-05-04T03:38:12.151Z,7.63
2023-05-04T03:39:13.853Z,8.02
2023-05-04T03:40:15.424Z,8.57
2023-05-04T03:41:17.170Z,7.97
2023-05-04T03:42:18.660Z,7.63
2023-05-04T03:43:20.093Z,7.75
2023-05-04T03:44:21.611Z,8.85
2023-05-04T03:45:23.774Z,9.50
2023-05-04T03:46:25.299Z,9.70
2023-05-04T03:47:26.828Z,8.82
2023-05-04T03:48:28.312Z,7.68
2023-05-04T03:49:29.720Z,9.27
2023-05-04T03:50:31.897Z,9.15
2023-05-04T03:51:33.337Z,9.05
2023-05-04T03:52:34.722Z,8.18
2023-05-04T03:53:36.227Z,8.40
2023-05-04T03:54:37.649Z,8.98
2023-05-04T03:55:39.062Z,8.57
2023-05-04T03:56:40.469Z,8.57
2023-05-04T03:57:41.902Z,7.57
2023-05-04T03:58:43.410Z,8.55
2023-05-04T03:59:44.806Z,7.88
2023-05-04T04:00:46.282Z,8.25
2023-05-04T04:01:47.689Z,7.82
2023-05-04T04:02:49.178Z,8.38
2023-05-04T04:03:51.044Z,8.13
2023-05-04T04:04:52.560Z,8.82
2023-05-04T04:05:53.974Z,8.48
2023-05-04T04:06:55.688Z,8.93
2023-05-04T04:07:57.125Z,8.40
2023-05-04T04:08:58.565Z,8.52
2023-05-04T04:09:59.975Z,9.00
2023-05-04T04:11:01.441Z,8.95
2023-05-04T04:12:03.058Z,8.73
2023-05-04T04:13:04.578Z,8.18
2023-05-04T04:14:06.333Z,7.95
2023-05-04T04:15:08.215Z,10.13
2023-05-04T04:16:09.710Z,8.57
2023-05-04T04:17:11.367Z,8.70
2023-05-04T04:18:13.014Z,8.52
2023-05-04T04:19:14.717Z,8.77
2023-05-04T04:20:16.343Z,7.90
2023-05-04T04:21:17.784Z,8.32
2023-05-04T04:22:19.231Z,9.82
2023-05-04T04:23:21.716Z,7.85
2023-05-04T04:24:23.105Z,8.68
2023-05-04T04:25:24.555Z,9.77
2023-05-04T04:26:25.964Z,8.52
2023-05-04T04:27:27.372Z,8.27
2023-05-04T04:28:28.780Z,8.55
2023-05-04T04:29:30.534Z,8.90
2023-05-04T04:30:31.953Z,9.13
2023-05-04T04:31:33.574Z,8.98
2023-05-04T04:32:35.147Z,7.68
2023-05-04T04:33:36.563Z,7.70
2023-05-04T04:34:38.600Z,7.80
2023-05-04T04:36:41.370Z,6.35
2023-05-04T04:37:42.807Z,6.13
2023-05-04T04:38:44.912Z,7.70
2023-05-04T04:40:47.751Z,6.07
2023-05-04T04:41:49.382Z,6.80
2023-05-04T04:42:52.115Z,6.45
2023-05-04T04:43:53.527Z,5.97
2023-05-04T04:44:54.982Z,7.45
2023-05-04T04:45:56.929Z,6.35
2023-05-04T04:46:58.578Z,6.22
2023-05-04T04:48:00.162Z,6.60
2023-05-04T04:49:01.670Z,5.70
2023-05-04T04:50:04.906Z,6.75
2023-05-04T04:51:10.452Z,6.38
2023-05-04T04:52:12.362Z,5.82
2023-05-04T04:53:14.183Z,5.75
2023-05-04T04:54:15.679Z,5.38
2023-05-04T04:55:17.966Z,5.60
2023-05-04T04:56:19.466Z,5.10
2023-05-04T04:57:21.025Z,5.30
2023-05-04T04:58:22.563Z,5.20
2023-05-04T04:59:24.812Z,5.45
2023-05-04T05:00:26.304Z,6.57
2023-05-04T05:01:27.933Z,5.55
2023-05-04T05:02:29.497Z,5.43
2023-05-04T05:03:32.011Z,5.45
2023-05-04T05:04:33.605Z,6.10
2023-05-04T05:05:35.058Z,5.55
2023-05-04T05:06:36.712Z,5.45
2023-05-04T05:07:38.203Z,5.28
2023-05-04T05:08:39.982Z,5.85
2023-05-04T05:09:42.114Z,5.55
2023-05-04T05:10:44.077Z,5.53
2023-05-04T05:11:45.650Z,5.90
2023-05-04T05:12:47.429Z,5.82
2023-05-04T05:13:49.003Z,5.93
2023-05-04T05:14:50.888Z,5.90
2023-05-04T05:15:52.348Z,5.13
2023-05-04T05:16:54.275Z,4.95
2023-05-04T05:17:56.529Z,5.10
2023-05-04T05:18:58.063Z,4.55
2023-05-04T05:19:59.461Z,5.20
2023-05-04T05:21:00.938Z,4.55
2023-05-04T05:22:05.276Z,5.85
2023-05-04T05:23:06.661Z,5.28
2023-05-04T05:24:08.054Z,4.68
2023-05-04T05:25:09.716Z,4.40
2023-05-04T05:26:11.762Z,5.68
2023-05-04T05:28:14.682Z,4.45
2023-05-04T05:29:16.119Z,5.38
2023-05-04T05:30:17.905Z,4.43
2023-05-04T05:31:19.349Z,4.60
2023-05-04T05:32:20.864Z,5.78
2023-05-04T05:33:22.292Z,4.70
2023-05-04T05:34:23.738Z,4.40
2023-05-04T05:35:25.368Z,4.68
2023-05-04T05:36:27.202Z,4.68
2023-05-04T05:37:28.795Z,4.38
2023-05-04T05:38:30.233Z,5.63
2023-05-04T05:39:32.131Z,5.20
2023-05-04T05:40:33.520Z,4.50
2023-05-04T05:41:34.930Z,4.97
2023-05-04T05:42:36.629Z,5.00
2023-05-04T05:43:38.658Z,5.05
2023-05-04T05:44:40.305Z,4.63
2023-05-04T05:45:41.861Z,4.65
2023-05-04T05:46:43.355Z,5.18
2023-05-04T05:47:44.951Z,5.20
2023-05-04T05:48:46.508Z,4.85
2023-05-04T05:49:47.901Z,5.07
2023-05-04T05:50:49.576Z,5.07
2023-05-04T05:51:51.069Z,4.75
2023-05-04T05:52:52.488Z,4.60
2023-05-04T05:53:53.918Z,4.53
2023-05-04T05:54:55.315Z,3.90
2023-05-04T05:55:56.713Z,5.00
2023-05-04T05:56:58.410Z,5.05
2023-05-04T05:57:59.816Z,4.13
2023-05-04T05:59:01.253Z,5.55
2023-05-04T06:00:03.087Z,4.70
2023-05-04T06:01:04.716Z,5.65
2023-05-04T06:02:06.389Z,4.78
2023-05-04T06:03:08.157Z,4.25
2023-05-04T06:05:11.628Z,4.95
2023-05-04T06:06:13.144Z,4.60
2023-05-04T06:07:14.661Z,5.72
2023-05-04T06:08:16.064Z,4.80
2023-05-04T06:09:17.460Z,5.03
2023-05-04T06:10:18.896Z,6.53
2023-05-04T06:11:21.177Z,5.65
2023-05-04T06:12:23.279Z,4.95
2023-05-04T06:13:24.686Z,4.70
2023-05-04T06:14:26.165Z,6.35
2023-05-04T06:15:27.655Z,4.50
2023-05-04T06:16:29.187Z,5.88
2023-05-04T06:17:30.682Z,5.47
2023-05-04T06:18:32.233Z,4.90
2023-05-04T06:19:38.233Z,4.85
2023-05-04T06:20:39.695Z,5.80
2023-05-04T06:21:41.277Z,5.38
2023-05-04T06:22:42.734Z,4.90
2023-05-04T06:23:44.404Z,5.57
2023-05-04T06:24:46.481Z,5.60
2023-05-04T06:25:47.872Z,5.38
2023-05-04T06:26:49.292Z,5.68
2023-05-04T06:27:51.286Z,5.07
2023-05-04T06:29:54.095Z,5.70
2023-05-04T06:30:55.481Z,5.78
2023-05-04T06:31:57.006Z,5.88
2023-05-04T06:32:58.539Z,5.60
2023-05-04T06:33:59.956Z,5.85
2023-05-04T06:35:02.577Z,6.43
2023-05-04T06:36:04.644Z,7.10
2023-05-04T06:37:06.112Z,5.63
2023-05-04T06:38:07.552Z,5.53
2023-05-04T06:39:09.008Z,6.35
2023-05-04T06:40:11.330Z,6.57
2023-05-04T06:41:13.021Z,5.65
2023-05-04T06:42:14.605Z,5.25
2023-05-04T06:43:16.174Z,5.85
2023-05-04T06:44:17.754Z,6.45
2023-05-04T06:45:19.280Z,5.53
2023-05-04T06:46:20.715Z,6.43
2023-05-04T06:47:22.159Z,5.65
2023-05-04T06:48:23.630Z,6.72
2023-05-04T06:49:25.079Z,5.88
2023-05-04T06:50:26.778Z,7.00
2023-05-04T06:51:28.222Z,6.20
2023-05-04T06:52:29.814Z,5.40
2023-05-04T06:53:31.208Z,6.30
2023-05-04T06:54:32.653Z,5.82
2023-05-04T06:55:34.755Z,6.78
2023-05-04T06:56:36.388Z,5.80
2023-05-04T06:57:37.896Z,5.72
2023-05-04T06:58:39.335Z,5.80
2023-05-04T06:59:41.101Z,6.32
2023-05-04T07:00:42.557Z,6.15
2023-05-04T07:01:45.322Z,5.43
2023-05-04T07:02:47.192Z,6.05
2023-05-04T07:03:48.871Z,6.85
2023-05-04T07:04:50.646Z,5.30
2023-05-04T07:05:52.138Z,5.05
2023-05-04T07:06:53.632Z,5.30
2023-05-04T07:07:55.235Z,6.47
2023-05-04T07:08:56.766Z,6.00
2023-05-04T07:09:58.182Z,5.68
2023-05-04T07:10:59.573Z,5.38
2023-05-04T07:12:01.274Z,5.45
2023-05-04T07:13:02.796Z,6.10
2023-05-04T07:14:04.242Z,5.25
2023-05-04T07:15:06.691Z,6.15
2023-05-04T07:16:09.156Z,6.18
2023-05-04T07:17:11.709Z,4.90
2023-05-04T07:18:13.290Z,4.50
2023-05-04T07:19:14.750Z,5.20
2023-05-04T07:20:16.362Z,4.75
2023-05-04T07:21:27.534Z,5.57
2023-05-04T07:22:31.230Z,6.53
2023-05-04T07:23:32.875Z,5.68
2023-05-04T07:24:34.314Z,6.05
2023-05-04T07:25:35.758Z,5.50
2023-05-04T07:26:37.174Z,5.50
2023-05-04T07:27:38.717Z,4.78
2023-05-04T07:28:43.584Z,5.10
2023-05-04T07:29:45.178Z,4.88
2023-05-04T07:30:46.605Z,4.82
2023-05-04T07:31:48.062Z,5.05
2023-05-04T07:32:49.527Z,5.22
2023-05-04T07:33:51.120Z,5.03
2023-05-04T07:34:52.563Z,6.00
2023-05-04T07:35:58.691Z,4.95
2023-05-04T07:37:00.171Z,5.10
2023-05-04T07:38:02.774Z,4.43
2023-05-04T07:39:04.306Z,4.63
2023-05-04T07:40:07.628Z,5.50
2023-05-04T07:41:10.220Z,5.03
2023-05-04T07:42:11.863Z,4.82
2023-05-04T07:43:13.276Z,4.32
2023-05-04T07:44:14.715Z,4.90
2023-05-04T07:45:16.844Z,4.72
2023-05-04T07:46:18.451Z,4.57
2023-05-04T07:47:20.146Z,4.80
2023-05-04T07:48:22.424Z,5.85
2023-05-04T07:49:26.045Z,4.75
2023-05-04T07:50:27.539Z,5.50
2023-05-04T07:51:28.973Z,4.70
2023-05-04T07:52:30.445Z,6.45
2023-05-04T07:53:31.914Z,5.38
2023-05-04T07:54:33.350Z,4.72
2023-05-04T07:55:34.794Z,5.45
2023-05-04T07:56:36.332Z,5.15
2023-05-04T07:57:37.826Z,4.65
2023-05-04T07:58:39.583Z,4.35
2023-05-04T07:59:41.339Z,6.18
2023-05-04T08:00:42.758Z,5.43
2023-05-04T08:01:44.650Z,4.53
2023-05-04T08:03:48.396Z,4.43
2023-05-04T08:04:49.863Z,4.07
2023-05-04T08:05:51.275Z,4.60
2023-05-04T08:06:53.052Z,4.25
2023-05-04T08:07:54.489Z,4.55
2023-05-04T08:08:56.128Z,5.38
2023-05-04T08:09:57.691Z,4.57
2023-05-04T08:11:11.651Z,4.13
2023-05-04T08:12:20.438Z,3.72
2023-05-04T08:13:22.034Z,4.30
2023-05-04T08:14:23.506Z,4.03
2023-05-04T08:15:25.069Z,3.85
2023-05-04T08:16:28.265Z,3.83
2023-05-04T08:17:29.785Z,3.42
2023-05-04T08:18:31.338Z,4.63
2023-05-04T08:19:34.151Z,4.50
2023-05-04T08:20:35.572Z,3.78
2023-05-04T08:21:37.108Z,3.47
2023-05-04T08:22:38.699Z,4.28
2023-05-04T08:23:40.169Z,3.08
2023-05-04T08:24:41.828Z,3.50
2023-05-04T08:25:43.263Z,4.00
2023-05-04T08:26:49.612Z,3.33
2023-05-04T08:27:57.264Z,3.58
2023-05-04T08:29:10.343Z,4.20
2023-05-04T08:30:12.268Z,3.85
2023-05-04T08:32:15.306Z,3.58
2023-05-04T08:33:16.744Z,3.63
2023-05-04T08:34:18.164Z,3.05
2023-05-04T08:35:19.597Z,4.03
2023-05-04T08:36:21.060Z,4.00
2023-05-04T08:37:22.480Z,4.57
2023-05-04T08:38:24.029Z,3.42
2023-05-04T08:39:25.652Z,3.10
2023-05-04T08:40:27.405Z,4.10
2023-05-04T08:41:30.295Z,4.00
2023-05-04T08:42:32.880Z,4.20
2023-05-04T08:43:36.117Z,2.97
2023-05-04T08:44:37.592Z,3.67
2023-05-04T08:45:39.802Z,4.47
2023-05-04T08:46:41.406Z,3.88
2023-05-04T08:47:43.630Z,3.42
2023-05-04T08:48:46.296Z,4.03
2023-05-04T08:49:47.779Z,3.88
2023-05-04T08:50:49.401Z,3.65
2023-05-04T08:51:51.590Z,3.13
2023-05-04T08:52:53.477Z,3.47
2023-05-04T08:54:58.404Z,3.90
2023-05-04T08:56:04.200Z,3.55
2023-05-04T08:57:05.874Z,3.80
2023-05-04T08:58:12.807Z,4.28
2023-05-04T08:59:22.008Z,4.38
2023-05-04T09:00:23.888Z,3.45
2023-05-04T09:01:26.418Z,3.83
2023-05-04T09:02:29.260Z,3.42
2023-05-04T09:03:31.367Z,4.22
2023-05-04T09:04:32.895Z,3.30
2023-05-04T09:05:35.376Z,3.72
2023-05-04T09:06:37.045Z,3.90
2023-05-04T09:07:38.665Z,3.33
2023-05-04T09:08:41.292Z,3.50
2023-05-04T09:09:42.838Z,4.35
2023-05-04T09:10:44.302Z,3.25
2023-05-04T09:11:46.304Z,3.13
2023-05-04T09:12:47.860Z,4.13
2023-05-04T09:13:49.285Z,3.10
2023-05-04T09:14:50.690Z,2.95
2023-05-04T09:15:56.289Z,3.97
2023-05-04T09:16:57.772Z,3.55
2023-05-04T09:18:01.777Z,3.80
2023-05-04T09:19:04.850Z,4.68
2023-05-04T09:20:06.966Z,4.20
2023-05-04T09:21:08.543Z,3.72
2023-05-04T09:22:17.587Z,3.63
2023-05-04T09:23:19.293Z,3.75
2023-05-04T09:24:28.174Z,3.30
2023-05-04T09:25:29.647Z,3.55
2023-05-04T09:26:32.086Z,3.30
2023-05-04T09:27:33.528Z,4.03
2023-05-04T09:28:37.376Z,3.33
2023-05-04T09:29:40.590Z,3.28
2023-05-04T09:30:42.622Z,3.85
2023-05-04T09:31:44.059Z,3.33
2023-05-04T09:32:46.821Z,4.13
2023-05-04T09:33:48.365Z,2.95
2023-05-04T09:34:53.709Z,3.33
2023-05-04T09:35:57.145Z,4.07
2023-05-04T09:37:03.223Z,3.50
2023-05-04T09:38:05.083Z,3.00
2023-05-04T09:40:14.817Z,3.72
2023-05-04T09:41:16.313Z,3.75
2023-05-04T09:42:18.797Z,4.05
2023-05-04T09:43:20.220Z,3.63
2023-05-04T09:44:22.941Z,3.97
2023-05-04T09:45:24.576Z,4.30
2023-05-04T09:46:26.180Z,4.60
2023-05-04T09:47:33.306Z,3.28
2023-05-04T09:48:35.036Z,4.30
2023-05-04T09:49:37.859Z,4.25
2023-05-04T09:50:40.145Z,3.47
2023-05-04T09:51:42.900Z,4.15
2023-05-04T09:52:45.811Z,4.57
2023-05-04T09:53:49.194Z,3.80
2023-05-04T09:54:50.969Z,3.70
2023-05-04T09:56:16.972Z,3.58
2023-05-04T09:57:18.994Z,3.30
2023-05-04T09:58:21.274Z,3.33
2023-05-04T09:59:26.443Z,3.80
2023-05-04T10:00:28.472Z,3.63
2023-05-04T10:01:30.112Z,3.72
2023-05-04T10:02:32.307Z,3.70
2023-05-04T10:03:34.162Z,3.35
2023-05-04T10:05:39.070Z,4.40
2023-05-04T10:06:43.151Z,4.22
2023-05-04T10:07:45.078Z,3.47
2023-05-04T10:08:49.136Z,3.67
2023-05-04T10:09:51.355Z,3.63
2023-05-04T10:10:53.166Z,3.35
2023-05-04T10:11:55.566Z,4.07
2023-05-04T10:12:57.064Z,3.80
2023-05-04T10:13:58.641Z,3.42
2023-05-04T10:15:01.478Z,2.95
2023-05-04T10:16:14.101Z,4.40
2023-05-04T10:17:32.594Z,4.15
2023-05-04T10:18:55.766Z,4.40
2023-05-04T10:20:11.762Z,3.63
2023-05-04T10:21:23.380Z,3.70
2023-05-04T10:23:02.655Z,3.63
2023-05-04T10:24:26.364Z,4.00
2023-05-04T10:25:34.678Z,3.95
2023-05-04T10:26:55.088Z,3.67
2023-05-04T10:28:18.141Z,3.33
2023-05-04T10:29:24.630Z,3.85
2023-05-04T10:30:26.390Z,4.05
2023-05-04T10:31:40.609Z,5.05
2023-05-04T10:32:42.348Z,3.88
2023-05-04T10:33:44.064Z,3.47
2023-05-04T10:34:45.712Z,4.05
2023-05-04T10:35:54.305Z,3.85
2023-05-04T10:36:56.699Z,4.85
2023-05-04T10:37:59.022Z,4.93
2023-05-04T10:39:01.290Z,4.85
2023-05-04T10:40:07.857Z,3.35
2023-05-04T10:41:15.648Z,4.63
2023-05-04T10:42:17.074Z,4.50
2023-05-04T10:43:26.278Z,3.33
2023-05-04T10:44:29.135Z,3.92
2023-05-04T10:45:41.696Z,3.90
2023-05-04T10:46:43.272Z,4.63
2023-05-04T10:47:44.820Z,3.58
2023-05-04T10:48:46.346Z,3.45
2023-05-04T10:49:47.767Z,3.47
2023-05-04T10:50:50.460Z,4.93
2023-05-04T10:52:16.091Z,4.93
2023-05-04T10:53:18.429Z,3.55
2023-05-04T10:54:19.865Z,3.50
2023-05-04T10:55:22.293Z,3.60
2023-05-04T10:56:28.353Z,3.63
2023-05-04T10:57:30.488Z,3.10
2023-05-04T10:58:31.949Z,3.33
2023-05-04T10:59:35.359Z,3.42
2023-05-04T11:00:39.693Z,3.90
2023-05-04T11:01:47.343Z,4.10
2023-05-04T11:02:49.610Z,3.50
2023-05-04T11:03:52.409Z,3.72
2023-05-04T11:05:04.822Z,3.25
2023-05-04T11:06:24.219Z,3.38
2023-05-04T11:07:39.002Z,4.07
2023-05-04T11:08:40.889Z,3.05
2023-05-04T11:09:44.320Z,4.13
2023-05-04T11:11:09.186Z,3.70
2023-05-04T11:12:14.656Z,3.70
2023-05-04T11:13:16.220Z,3.40
2023-05-04T11:14:24.829Z,2.78
2023-05-04T11:15:26.565Z,3.45
2023-05-04T11:16:28.159Z,3.45
2023-05-04T11:17:29.693Z,4.30
2023-05-04T11:18:34.066Z,3.42
2023-05-04T11:19:35.803Z,3.30
2023-05-04T11:21:40.721Z,3.00
2023-05-04T11:22:42.334Z,3.33
2023-05-04T11:23:43.790Z,3.38
2023-05-04T11:24:49.401Z,3.22
2023-05-04T11:25:50.839Z,3.38
2023-05-04T11:26:52.241Z,3.45
2023-05-04T11:27:53.967Z,4.07
2023-05-04T11:28:55.459Z,3.85
2023-05-04T11:30:07.136Z,3.25
2023-05-04T11:31:13.665Z,3.15
2023-05-04T11:32:15.138Z,3.88
2023-05-04T11:33:17.146Z,4.15
2023-05-04T11:34:20.072Z,4.10
2023-05-04T11:35:24.977Z,2.75
2023-05-04T11:36:27.178Z,4.00
2023-05-04T11:37:29.413Z,3.03
2023-05-04T11:38:31.183Z,3.40
2023-05-04T11:40:36.153Z,3.95
2023-05-04T11:41:37.755Z,3.17
2023-05-04T11:42:40.459Z,3.95
2023-05-04T11:43:44.999Z,3.03
2023-05-04T11:44:46.822Z,3.67
2023-05-04T11:46:51.529Z,3.92
2023-05-04T11:47:56.429Z,3.25
2023-05-04T11:48:59.335Z,3.10
2023-05-04T11:50:00.911Z,3.95
2023-05-04T11:51:03.294Z,3.00
2023-05-04T11:52:08.222Z,3.47
2023-05-04T11:53:12.127Z,3.55
2023-05-04T11:54:21.682Z,3.42
2023-05-04T11:55:28.722Z,4.00
2023-05-04T11:56:40.513Z,3.33
2023-05-04T11:57:41.970Z,3.22
2023-05-04T11:58:43.392Z,3.53
2023-05-04T11:59:48.848Z,3.00
2023-05-04T12:00:56.066Z,2.70
2023-05-04T12:01:57.636Z,3.83
2023-05-04T12:03:00.664Z,3.60
2023-05-04T12:04:02.430Z,2.88
2023-05-04T12:06:07.277Z,3.63
2023-05-04T12:07:08.858Z,3.33
2023-05-04T12:08:12.402Z,3.15
2023-05-04T12:09:14.020Z,3.30
2023-05-04T12:10:25.127Z,3.15
2023-05-04T12:11:27.476Z,3.33
2023-05-04T12:12:35.680Z,3.00
2023-05-04T12:13:37.520Z,3.88
2023-05-04T12:15:56.034Z,3.45
2023-05-04T12:17:00.702Z,3.22
2023-05-04T12:18:03.238Z,4.25
2023-05-04T12:19:05.054Z,3.83
2023-05-04T12:20:07.347Z,3.63
2023-05-04T12:21:13.697Z,3.25
2023-05-04T12:22:15.673Z,3.40
2023-05-04T12:23:17.704Z,2.92
2023-05-04T12:24:21.892Z,3.88
2023-05-04T12:25:24.296Z,3.13
2023-05-04T12:26:26.741Z,3.10
2023-05-04T12:27:28.834Z,3.47
2023-05-04T12:28:30.374Z,3.05
2023-05-04T12:29:31.876Z,3.10
2023-05-04T12:30:33.267Z,3.88
2023-05-04T12:31:34.751Z,3.60
2023-05-04T12:32:36.241Z,3.55
2023-05-04T12:33:37.787Z,3.13
2023-05-04T12:34:39.267Z,3.53
2023-05-04T12:35:40.885Z,3.25
2023-05-04T12:36:42.335Z,3.58
2023-05-04T12:37:44.401Z,2.92
2023-05-04T12:38:46.095Z,4.28
2023-05-04T12:40:48.911Z,3.13
2023-05-04T12:41:50.326Z,3.67
2023-05-04T12:42:52.036Z,3.00
2023-05-04T12:43:53.937Z,3.30
2023-05-04T12:44:55.395Z,3.75
2023-05-04T12:45:57.005Z,3.63
2023-05-04T12:46:58.460Z,3.38
2023-05-04T12:47:59.883Z,4.07
2023-05-04T12:49:01.341Z,2.90
2023-05-04T12:50:05.131Z,2.83
2023-05-04T12:51:06.684Z,3.60
2023-05-04T12:52:08.779Z,3.20
2023-05-04T12:53:10.561Z,4.38
2023-05-04T12:55:14.216Z,3.15
2023-05-04T12:56:15.645Z,3.25
2023-05-04T12:57:17.079Z,3.63
2023-05-04T12:58:18.486Z,3.75
2023-05-04T12:59:19.992Z,3.50
2023-05-04T13:00:21.623Z,3.67
2023-05-04T13:01:23.124Z,3.97
2023-05-04T13:02:24.749Z,2.72
2023-05-04T13:03:26.270Z,3.13
2023-05-04T13:04:27.958Z,3.78
2023-05-04T13:05:29.965Z,2.72
2023-05-04T13:06:31.472Z,3.20
2023-05-04T13:07:32.904Z,3.42
2023-05-04T13:08:34.326Z,3.15
2023-05-04T13:09:35.983Z,3.15
2023-05-04T13:10:37.476Z,3.08
2023-05-04T13:11:38.891Z,3.47
2023-05-04T13:12:40.525Z,3.25
2023-05-04T13:13:42.747Z,4.15
2023-05-04T13:14:44.461Z,3.55
2023-05-04T13:15:50.230Z,3.22
2023-05-04T13:16:52.592Z,4.03
2023-05-04T13:17:54.267Z,3.03
2023-05-04T13:18:55.811Z,3.05
2023-05-04T13:19:57.300Z,3.25
2023-05-04T13:20:58.735Z,3.95
2023-05-04T13:22:00.197Z,4.32
2023-05-04T13:23:01.823Z,2.83
2023-05-04T13:24:03.389Z,3.20
2023-05-04T13:25:05.662Z,2.80
2023-05-04T13:26:07.313Z,2.80
2023-05-04T13:27:08.907Z,3.30
2023-05-04T13:28:10.295Z,3.10
2023-05-04T13:29:11.926Z,3.17
2023-05-04T13:30:13.662Z,3.00
2023-05-04T13:32:16.481Z,4.13
2023-05-04T13:33:28.722Z,3.80
2023-05-04T13:34:31.217Z,3.15
2023-05-04T13:35:32.666Z,3.75
2023-05-04T13:36:34.154Z,3.15
2023-05-04T13:37:35.613Z,3.42
2023-05-04T13:38:37.390Z,3.88
2023-05-04T13:40:43.969Z,2.92
2023-05-04T13:42:47.028Z,2.80
2023-05-04T13:43:48.638Z,3.10
2023-05-04T13:44:50.101Z,3.95
2023-05-04T13:45:51.880Z,3.20
2023-05-04T13:47:54.807Z,3.15
2023-05-04T13:48:57.208Z,2.88
2023-05-04T13:49:58.760Z,2.63
2023-05-04T13:51:03.356Z,2.92
2023-05-04T13:52:05.298Z,2.72
2023-05-04T13:53:06.949Z,3.45
2023-05-04T13:54:08.710Z,2.80
2023-05-04T13:56:11.626Z,3.25
2023-05-04T13:57:13.068Z,2.70
2023-05-04T13:58:14.493Z,3.50
2023-05-04T13:59:16.028Z,3.10
2023-05-04T14:00:18.076Z,2.60
2023-05-04T14:01:19.649Z,3.40
2023-05-04T14:02:21.874Z,3.85
2023-05-04T14:03:23.444Z,3.00
2023-05-04T14:04:24.941Z,3.15
2023-05-04T14:05:26.331Z,4.07
2023-05-04T14:06:29.572Z,3.25
2023-05-04T14:07:31.162Z,3.75
2023-05-04T14:08:32.586Z,3.13
2023-05-04T14:09:33.992Z,4.15
2023-05-04T14:10:37.456Z,3.20
2023-05-04T14:11:39.099Z,3.58
2023-05-04T14:12:40.589Z,4.03
2023-05-04T14:13:42.013Z,3.03
2023-05-04T14:14:43.450Z,3.45
2023-05-04T14:15:47.123Z,3.30
2023-05-04T14:16:48.691Z,3.13
2023-05-04T14:17:50.510Z,3.72
2023-05-04T14:19:53.306Z,3.05
2023-05-04T14:20:54.728Z,4.30
2023-05-04T14:21:56.141Z,3.33
2023-05-04T14:22:57.625Z,3.90
2023-05-04T14:23:59.060Z,3.03
2023-05-04T14:25:00.864Z,3.03
2023-05-04T14:27:03.706Z,3.72